sensor_id;sensor_type;location;lat;lon;timestamp;P1;P2;P0
31330;PMS5003;34067;39.548;-76.088;2023-04-03T00:00:39;3;3;
31330;PMS5003;34067;39.548;-76.088;2023-04-03T00:03:07;2;2;
31330;PMS5003;34067;39.548;-76.088;2023-04-03T00:05:35;2;2;
31330;PMS5003;34067;39.548;-76.088;2023-04-03T00:08:03;3;3;
31330;PMS5003;34067;39.548;-76.088;2023-04-03T00:10:31;3;2;
31330;PMS5003;34067;39.548;-76.088;2023-04-03T00:12:59;1;1;
31330;PMS5003;34067;39.548;-76.088;2023-04-03T00:15:28;2;2;
31330;PMS5003;34067;39.548;-76.088;2023-04-03T00:17:56;3;3;
31330;PMS5003;34067;39.548;-76.088;2023-04-03T00:20:24;2;2;
31330;PMS5003;34067;39.548;-76.088;2023-04-03T00:22:52;2;2;
31330;PMS5003;34067;39.548;-76.088;2023-04-03T00:25:21;4;3;
31330;PMS5003;34067;39.548;-76.088;2023-04-03T00:27:49;3;3;
31330;PMS5003;34067;39.548;-76.088;2023-04-03T00:30:19;4;3;
31330;PMS5003;34067;39.548;-76.088;2023-04-03T00:32:48;3;3;
31330;PMS5003;34067;39.548;-76.088;2023-04-03T00:35:17;4;4;
31330;PMS5003;34067;39.548;-76.088;2023-04-03T00:37:46;3;3;
31330;PMS5003;34067;39.548;-76.088;2023-04-03T00:40:14;3;3;
31330;PMS5003;34067;39.548;-76.088;2023-04-03T00:42:44;3;3;
31330;PMS5003;34067;39.548;-76.088;2023-04-03T00:45:24;4;4;
31330;PMS5003;34067;39.548;-76.088;2023-04-03T00:47:55;4;4;
31330;PMS5003;34067;39.548;-76.088;2023-04-03T00:50:24;5;5;
31330;PMS5003;34067;39.548;-76.088;2023-04-03T00:52:52;4;4;
31330;PMS5003;34067;39.548;-76.088;2023-04-03T00:55:20;5;5;
31330;PMS5003;34067;39.548;-76.088;2023-04-03T00:57:49;4;3;
31330;PMS5003;34067;39.548;-76.088;2023-04-03T01:00:19;5;4;
31330;PMS5003;34067;39.548;-76.088;2023-04-03T01:02:48;4;4;
31330;PMS5003;34067;39.548;-76.088;2023-04-03T01:05:16;4;3;
31330;PMS5003;34067;39.548;-76.088;2023-04-03T01:07:46;4;3;
31330;PMS5003;34067;39.548;-76.088;2023-04-03T01:10:17;5;4;
31330;PMS5003;34067;39.548;-76.088;2023-04-03T01:12:46;4;3;
31330;PMS5003;34067;39.548;-76.088;2023-04-03T01:15:17;3;3;
31330;PMS5003;34067;39.548;-76.088;2023-04-03T01:17:47;4;4;
31330;PMS5003;34067;39.548;-76.088;2023-04-03T01:22:15;4;3;
31330;PMS5003;34067;39.548;-76.088;2023-04-03T01:24:50;4;4;
31330;PMS5003;34067;39.548;-76.088;2023-04-03T01:27:19;4;3;
31330;PMS5003;34067;39.548;-76.088;2023-04-03T01:29:47;3;3;
31330;PMS5003;34067;39.548;-76.088;2023-04-03T01:32:15;3;3;
31330;PMS5003;34067;39.548;-76.088;2023-04-03T01:34:44;4;4;
31330;PMS5003;34067;39.548;-76.088;2023-04-03T01:37:12;4;4;
31330;PMS5003;34067;39.548;-76.088;2023-04-03T01:39:40;4;3;
31330;PMS5003;34067;39.548;-76.088;2023-04-03T01:42:08;3;2;
31330;PMS5003;34067;39.548;-76.088;2023-04-03T01:44:37;3;3;
31330;PMS5003;34067;39.548;-76.088;2023-04-03T01:47:05;3;3;
31330;PMS5003;34067;39.548;-76.088;2023-04-03T01:49:34;3;2;
31330;PMS5003;34067;39.548;-76.088;2023-04-03T01:52:02;3;3;
31330;PMS5003;34067;39.548;-76.088;2023-04-03T01:54:31;4;4;
31330;PMS5003;34067;39.548;-76.088;2023-04-03T01:56:59;3;3;
31330;PMS5003;34067;39.548;-76.088;2023-04-03T01:59:27;3;3;
31330;PMS5003;34067;39.548;-76.088;2023-04-03T02:01:55;3;3;
31330;PMS5003;34067;39.548;-76.088;2023-04-03T02:04:23;3;3;
31330;PMS5003;34067;39.548;-76.088;2023-04-03T02:06:51;3;3;
31330;PMS5003;34067;39.548;-76.088;2023-04-03T02:09:20;3;3;
31330;PMS5003;34067;39.548;-76.088;2023-04-03T02:11:48;3;3;
31330;PMS5003;34067;39.548;-76.088;2023-04-03T02:14:16;3;3;
31330;PMS5003;34067;39.548;-76.088;2023-04-03T02:16:44;2;2;
31330;PMS5003;34067;39.548;-76.088;2023-04-03T02:19:12;3;3;
31330;PMS5003;34067;39.548;-76.088;2023-04-03T02:21:40;2;2;
31330;PMS5003;34067;39.548;-76.088;2023-04-03T02:24:08;5;5;
31330;PMS5003;34067;39.548;-76.088;2023-04-03T02:26:36;5;5;
31330;PMS5003;34067;39.548;-76.088;2023-04-03T02:29:05;6;5;
31330;PMS5003;34067;39.548;-76.088;2023-04-03T02:31:33;3;3;
31330;PMS5003;34067;39.548;-76.088;2023-04-03T02:34:01;4;3;
31330;PMS5003;34067;39.548;-76.088;2023-04-03T02:36:30;4;3;
31330;PMS5003;34067;39.548;-76.088;2023-04-03T02:38:58;3;3;
31330;PMS5003;34067;39.548;-76.088;2023-04-03T02:41:26;4;3;
31330;PMS5003;34067;39.548;-76.088;2023-04-03T02:43:54;4;3;
31330;PMS5003;34067;39.548;-76.088;2023-04-03T02:46:23;6;4;
31330;PMS5003;34067;39.548;-76.088;2023-04-03T02:48:51;3;3;
31330;PMS5003;34067;39.548;-76.088;2023-04-03T02:51:19;5;5;
31330;PMS5003;34067;39.548;-76.088;2023-04-03T02:53:47;6;6;
31330;PMS5003;34067;39.548;-76.088;2023-04-03T02:56:16;4;4;
31330;PMS5003;34067;39.548;-76.088;2023-04-03T02:58:44;5;5;
31330;PMS5003;34067;39.548;-76.088;2023-04-03T03:01:12;6;5;
31330;PMS5003;34067;39.548;-76.088;2023-04-03T03:03:40;4;4;
31330;PMS5003;34067;39.548;-76.088;2023-04-03T03:06:09;5;4;
31330;PMS5003;34067;39.548;-76.088;2023-04-03T03:08:39;6;4;
31330;PMS5003;34067;39.548;-76.088;2023-04-03T03:11:08;6;5;
31330;PMS5003;34067;39.548;-76.088;2023-04-03T03:13:37;6;4;
31330;PMS5003;34067;39.548;-76.088;2023-04-03T03:16:06;4;3;
31330;PMS5003;34067;39.548;-76.088;2023-04-03T03:18:35;6;5;
31330;PMS5003;34067;39.548;-76.088;2023-04-03T03:21:03;4;4;
31330;PMS5003;34067;39.548;-76.088;2023-04-03T03:23:31;4;4;
31330;PMS5003;34067;39.548;-76.088;2023-04-03T03:26:01;3;3;
31330;PMS5003;34067;39.548;-76.088;2023-04-03T03:28:30;4;4;
31330;PMS5003;34067;39.548;-76.088;2023-04-03T03:31:00;4;4;
31330;PMS5003;34067;39.548;-76.088;2023-04-03T03:33:28;6;6;
31330;PMS5003;34067;39.548;-76.088;2023-04-03T03:35:56;4;4;
31330;PMS5003;34067;39.548;-76.088;2023-04-03T03:38:24;4;4;
31330;PMS5003;34067;39.548;-76.088;2023-04-03T03:40:53;6;4;
31330;PMS5003;34067;39.548;-76.088;2023-04-03T03:43:21;4;4;
31330;PMS5003;34067;39.548;-76.088;2023-04-03T03:45:50;10;5;
31330;PMS5003;34067;39.548;-76.088;2023-04-03T03:48:19;4;4;
31330;PMS5003;34067;39.548;-76.088;2023-04-03T03:50:49;5;5;
31330;PMS5003;34067;39.548;-76.088;2023-04-03T03:53:17;4;4;
31330;PMS5003;34067;39.548;-76.088;2023-04-03T03:55:45;4;4;
31330;PMS5003;34067;39.548;-76.088;2023-04-03T03:58:13;5;5;
31330;PMS5003;34067;39.548;-76.088;2023-04-03T04:00:42;5;4;
31330;PMS5003;34067;39.548;-76.088;2023-04-03T04:03:10;5;5;
31330;PMS5003;34067;39.548;-76.088;2023-04-03T04:05:38;6;4;
31330;PMS5003;34067;39.548;-76.088;2023-04-03T04:08:06;4;4;
31330;PMS5003;34067;39.548;-76.088;2023-04-03T04:10:35;7;6;
31330;PMS5003;34067;39.548;-76.088;2023-04-03T04:13:04;4;4;
31330;PMS5003;34067;39.548;-76.088;2023-04-03T04:15:32;6;6;
31330;PMS5003;34067;39.548;-76.088;2023-04-03T04:18:00;7;7;
31330;PMS5003;34067;39.548;-76.088;2023-04-03T04:20:29;13;13;
31330;PMS5003;34067;39.548;-76.088;2023-04-03T04:22:57;24;24;
31330;PMS5003;34067;39.548;-76.088;2023-04-03T04:25:25;22;21;
31330;PMS5003;34067;39.548;-76.088;2023-04-03T04:27:53;148;148;
31330;PMS5003;34067;39.548;-76.088;2023-04-03T04:30:21;46;46;
31330;PMS5003;34067;39.548;-76.088;2023-04-03T04:32:49;56;55;
31330;PMS5003;34067;39.548;-76.088;2023-04-03T04:35:17;73;73;
31330;PMS5003;34067;39.548;-76.088;2023-04-03T04:37:44;38;38;
31330;PMS5003;34067;39.548;-76.088;2023-04-03T04:40:13;21;21;
31330;PMS5003;34067;39.548;-76.088;2023-04-03T04:42:41;65;64;
31330;PMS5003;34067;39.548;-76.088;2023-04-03T04:45:10;20;20;
31330;PMS5003;34067;39.548;-76.088;2023-04-03T04:47:38;96;95;
31330;PMS5003;34067;39.548;-76.088;2023-04-03T04:50:06;116;115;
31330;PMS5003;34067;39.548;-76.088;2023-04-03T04:52:35;70;70;
31330;PMS5003;34067;39.548;-76.088;2023-04-03T04:55:04;12;12;
31330;PMS5003;34067;39.548;-76.088;2023-04-03T04:57:33;23;23;
31330;PMS5003;34067;39.548;-76.088;2023-04-03T05:00:00;39;39;
31330;PMS5003;34067;39.548;-76.088;2023-04-03T05:03:15;72;69;
31330;PMS5003;34067;39.548;-76.088;2023-04-03T05:05:43;75;75;
31330;PMS5003;34067;39.548;-76.088;2023-04-03T05:08:11;15;15;
31330;PMS5003;34067;39.548;-76.088;2023-04-03T05:10:38;39;38;
31330;PMS5003;34067;39.548;-76.088;2023-04-03T05:13:07;30;30;
31330;PMS5003;34067;39.548;-76.088;2023-04-03T05:15:34;16;15;
31330;PMS5003;34067;39.548;-76.088;2023-04-03T05:18:02;16;15;
31330;PMS5003;34067;39.548;-76.088;2023-04-03T05:20:30;19;19;
31330;PMS5003;34067;39.548;-76.088;2023-04-03T05:22:58;78;77;
31330;PMS5003;34067;39.548;-76.088;2023-04-03T05:25:25;43;42;
31330;PMS5003;34067;39.548;-76.088;2023-04-03T05:27:54;15;15;
31330;PMS5003;34067;39.548;-76.088;2023-04-03T05:30:22;87;85;
31330;PMS5003;34067;39.548;-76.088;2023-04-03T05:32:50;23;23;
31330;PMS5003;34067;39.548;-76.088;2023-04-03T05:35:18;58;58;
31330;PMS5003;34067;39.548;-76.088;2023-04-03T05:37:46;12;11;
31330;PMS5003;34067;39.548;-76.088;2023-04-03T05:40:14;59;59;
31330;PMS5003;34067;39.548;-76.088;2023-04-03T05:42:42;68;67;
31330;PMS5003;34067;39.548;-76.088;2023-04-03T05:45:10;30;29;
31330;PMS5003;34067;39.548;-76.088;2023-04-03T05:47:40;55;55;
31330;PMS5003;34067;39.548;-76.088;2023-04-03T05:50:08;39;39;
31330;PMS5003;34067;39.548;-76.088;2023-04-03T05:52:37;28;27;
31330;PMS5003;34067;39.548;-76.088;2023-04-03T05:55:07;24;22;
31330;PMS5003;34067;39.548;-76.088;2023-04-03T05:57:35;22;22;
31330;PMS5003;34067;39.548;-76.088;2023-04-03T06:00:03;17;15;
31330;PMS5003;34067;39.548;-76.088;2023-04-03T06:02:32;12;11;
31330;PMS5003;34067;39.548;-76.088;2023-04-03T06:05:00;12;11;
31330;PMS5003;34067;39.548;-76.088;2023-04-03T06:07:28;12;12;
31330;PMS5003;34067;39.548;-76.088;2023-04-03T06:09:56;37;34;
31330;PMS5003;34067;39.548;-76.088;2023-04-03T06:12:25;11;10;
31330;PMS5003;34067;39.548;-76.088;2023-04-03T06:14:53;10;10;
31330;PMS5003;34067;39.548;-76.088;2023-04-03T06:17:21;12;11;
31330;PMS5003;34067;39.548;-76.088;2023-04-03T06:19:49;14;13;
31330;PMS5003;34067;39.548;-76.088;2023-04-03T06:22:17;31;31;
31330;PMS5003;34067;39.548;-76.088;2023-04-03T06:24:45;23;22;
31330;PMS5003;34067;39.548;-76.088;2023-04-03T06:27:12;9;9;
31330;PMS5003;34067;39.548;-76.088;2023-04-03T06:29:40;10;10;
31330;PMS5003;34067;39.548;-76.088;2023-04-03T06:32:07;31;31;
31330;PMS5003;34067;39.548;-76.088;2023-04-03T06:34:35;7;7;
31330;PMS5003;34067;39.548;-76.088;2023-04-03T06:37:03;21;21;
31330;PMS5003;34067;39.548;-76.088;2023-04-03T06:39:31;9;9;
31330;PMS5003;34067;39.548;-76.088;2023-04-03T06:41:59;10;10;
31330;PMS5003;34067;39.548;-76.088;2023-04-03T06:44:27;7;7;
31330;PMS5003;34067;39.548;-76.088;2023-04-03T06:46:55;17;15;
31330;PMS5003;34067;39.548;-76.088;2023-04-03T06:49:23;15;14;
31330;PMS5003;34067;39.548;-76.088;2023-04-03T06:51:52;8;8;
31330;PMS5003;34067;39.548;-76.088;2023-04-03T06:54:19;20;19;
31330;PMS5003;34067;39.548;-76.088;2023-04-03T06:56:47;6;6;
31330;PMS5003;34067;39.548;-76.088;2023-04-03T06:59:15;17;17;
31330;PMS5003;34067;39.548;-76.088;2023-04-03T07:01:43;9;9;
31330;PMS5003;34067;39.548;-76.088;2023-04-03T07:04:11;12;12;
31330;PMS5003;34067;39.548;-76.088;2023-04-03T07:06:39;5;5;
31330;PMS5003;34067;39.548;-76.088;2023-04-03T07:09:06;7;6;
31330;PMS5003;34067;39.548;-76.088;2023-04-03T07:11:35;12;12;
31330;PMS5003;34067;39.548;-76.088;2023-04-03T07:14:03;16;13;
31330;PMS5003;34067;39.548;-76.088;2023-04-03T07:16:31;7;7;
31330;PMS5003;34067;39.548;-76.088;2023-04-03T07:18:59;10;10;
31330;PMS5003;34067;39.548;-76.088;2023-04-03T07:21:27;13;13;
31330;PMS5003;34067;39.548;-76.088;2023-04-03T07:23:55;7;7;
31330;PMS5003;34067;39.548;-76.088;2023-04-03T07:26:23;10;10;
31330;PMS5003;34067;39.548;-76.088;2023-04-03T07:28:51;8;8;
31330;PMS5003;34067;39.548;-76.088;2023-04-03T07:31:19;11;11;
31330;PMS5003;34067;39.548;-76.088;2023-04-03T07:33:47;11;11;
31330;PMS5003;34067;39.548;-76.088;2023-04-03T07:36:16;17;17;
31330;PMS5003;34067;39.548;-76.088;2023-04-03T07:38:46;11;10;
31330;PMS5003;34067;39.548;-76.088;2023-04-03T07:41:15;6;6;
31330;PMS5003;34067;39.548;-76.088;2023-04-03T07:43:43;12;12;
31330;PMS5003;34067;39.548;-76.088;2023-04-03T07:46:12;16;16;
31330;PMS5003;34067;39.548;-76.088;2023-04-03T07:48:41;6;6;
31330;PMS5003;34067;39.548;-76.088;2023-04-03T07:51:09;10;10;
31330;PMS5003;34067;39.548;-76.088;2023-04-03T07:53:37;13;13;
31330;PMS5003;34067;39.548;-76.088;2023-04-03T07:56:06;14;14;
31330;PMS5003;34067;39.548;-76.088;2023-04-03T07:58:35;18;18;
31330;PMS5003;34067;39.548;-76.088;2023-04-03T08:01:04;7;7;
31330;PMS5003;34067;39.548;-76.088;2023-04-03T08:03:31;10;9;
31330;PMS5003;34067;39.548;-76.088;2023-04-03T08:06:01;18;18;
31330;PMS5003;34067;39.548;-76.088;2023-04-03T08:08:31;12;12;
31330;PMS5003;34067;39.548;-76.088;2023-04-03T08:10:59;8;8;
31330;PMS5003;34067;39.548;-76.088;2023-04-03T08:13:28;8;8;
31330;PMS5003;34067;39.548;-76.088;2023-04-03T08:15:56;9;9;
31330;PMS5003;34067;39.548;-76.088;2023-04-03T08:18:24;10;9;
31330;PMS5003;34067;39.548;-76.088;2023-04-03T08:20:52;12;12;
31330;PMS5003;34067;39.548;-76.088;2023-04-03T08:23:20;13;13;
31330;PMS5003;34067;39.548;-76.088;2023-04-03T08:25:48;18;18;
31330;PMS5003;34067;39.548;-76.088;2023-04-03T08:28:16;19;17;
31330;PMS5003;34067;39.548;-76.088;2023-04-03T08:30:44;20;19;
31330;PMS5003;34067;39.548;-76.088;2023-04-03T08:33:12;21;21;
31330;PMS5003;34067;39.548;-76.088;2023-04-03T08:35:40;28;27;
31330;PMS5003;34067;39.548;-76.088;2023-04-03T08:38:09;19;18;
31330;PMS5003;34067;39.548;-76.088;2023-04-03T08:40:37;24;23;
31330;PMS5003;34067;39.548;-76.088;2023-04-03T08:43:13;21;20;
31330;PMS5003;34067;39.548;-76.088;2023-04-03T08:45:57;27;27;
31330;PMS5003;34067;39.548;-76.088;2023-04-03T08:48:33;32;31;
31330;PMS5003;34067;39.548;-76.088;2023-04-03T08:51:04;35;35;
31330;PMS5003;34067;39.548;-76.088;2023-04-03T08:53:39;49;49;
31330;PMS5003;34067;39.548;-76.088;2023-04-03T08:56:10;14;13;
31330;PMS5003;34067;39.548;-76.088;2023-04-03T08:58:41;24;24;
31330;PMS5003;34067;39.548;-76.088;2023-04-03T09:01:17;14;14;
31330;PMS5003;34067;39.548;-76.088;2023-04-03T09:03:48;19;19;
31330;PMS5003;34067;39.548;-76.088;2023-04-03T09:06:17;9;9;
31330;PMS5003;34067;39.548;-76.088;2023-04-03T09:08:50;12;12;
31330;PMS5003;34067;39.548;-76.088;2023-04-03T09:11:26;16;16;
31330;PMS5003;34067;39.548;-76.088;2023-04-03T09:14:04;36;35;
31330;PMS5003;34067;39.548;-76.088;2023-04-03T09:16:43;64;64;
31330;PMS5003;34067;39.548;-76.088;2023-04-03T09:19:21;112;112;
31330;PMS5003;34067;39.548;-76.088;2023-04-03T09:22:00;209;209;
31330;PMS5003;34067;39.548;-76.088;2023-04-03T09:24:38;185;185;
31330;PMS5003;34067;39.548;-76.088;2023-04-03T09:27:07;153;153;
31330;PMS5003;34067;39.548;-76.088;2023-04-03T09:29:39;177;177;
31330;PMS5003;34067;39.548;-76.088;2023-04-03T09:32:25;197;195;
31330;PMS5003;34067;39.548;-76.088;2023-04-03T09:34:56;173;173;
31330;PMS5003;34067;39.548;-76.088;2023-04-03T09:37:35;170;170;
31330;PMS5003;34067;39.548;-76.088;2023-04-03T09:40:05;179;179;
31330;PMS5003;34067;39.548;-76.088;2023-04-03T09:42:54;180;179;
31330;PMS5003;34067;39.548;-76.088;2023-04-03T09:45:24;214;214;
31330;PMS5003;34067;39.548;-76.088;2023-04-03T09:48:05;223;223;
31330;PMS5003;34067;39.548;-76.088;2023-04-03T09:50:36;221;221;
31330;PMS5003;34067;39.548;-76.088;2023-04-03T09:53:05;211;211;
31330;PMS5003;34067;39.548;-76.088;2023-04-03T09:55:41;202;202;
31330;PMS5003;34067;39.548;-76.088;2023-04-03T09:58:23;162;161;
31330;PMS5003;34067;39.548;-76.088;2023-04-03T10:00:54;144;144;
31330;PMS5003;34067;39.548;-76.088;2023-04-03T10:03:25;126;126;
31330;PMS5003;34067;39.548;-76.088;2023-04-03T10:05:56;155;154;
31330;PMS5003;34067;39.548;-76.088;2023-04-03T10:08:27;124;123;
31330;PMS5003;34067;39.548;-76.088;2023-04-03T10:11:13;171;171;
31330;PMS5003;34067;39.548;-76.088;2023-04-03T10:13:50;107;107;
31330;PMS5003;34067;39.548;-76.088;2023-04-03T10:16:21;124;124;
31330;PMS5003;34067;39.548;-76.088;2023-04-03T10:18:57;53;53;
31330;PMS5003;34067;39.548;-76.088;2023-04-03T10:21:37;68;68;
31330;PMS5003;34067;39.548;-76.088;2023-04-03T10:24:13;98;98;
31330;PMS5003;34067;39.548;-76.088;2023-04-03T10:26:47;63;63;
31330;PMS5003;34067;39.548;-76.088;2023-04-03T10:29:26;43;42;
31330;PMS5003;34067;39.548;-76.088;2023-04-03T10:32:08;42;41;
31330;PMS5003;34067;39.548;-76.088;2023-04-03T10:34:50;67;67;
31330;PMS5003;34067;39.548;-76.088;2023-04-03T10:37:30;42;42;
31330;PMS5003;34067;39.548;-76.088;2023-04-03T10:40:05;6;3;
31330;PMS5003;34067;39.548;-76.088;2023-04-03T10:42:46;10;8;
31330;PMS5003;34067;39.548;-76.088;2023-04-03T10:45:21;3;2;
31330;PMS5003;34067;39.548;-76.088;2023-04-03T10:47:58;4;4;
31330;PMS5003;34067;39.548;-76.088;2023-04-03T10:50:38;5;4;
31330;PMS5003;34067;39.548;-76.088;2023-04-03T10:53:18;3;3;
31330;PMS5003;34067;39.548;-76.088;2023-04-03T10:55:53;7;5;
31330;PMS5003;34067;39.548;-76.088;2023-04-03T10:58:29;3;3;
31330;PMS5003;34067;39.548;-76.088;2023-04-03T11:01:02;3;2;
31330;PMS5003;34067;39.548;-76.088;2023-04-03T11:03:36;5;4;
31330;PMS5003;34067;39.548;-76.088;2023-04-03T11:06:10;3;3;
31330;PMS5003;34067;39.548;-76.088;2023-04-03T11:08:42;4;4;
31330;PMS5003;34067;39.548;-76.088;2023-04-03T11:11:14;5;4;
31330;PMS5003;34067;39.548;-76.088;2023-04-03T11:13:48;4;3;
31330;PMS5003;34067;39.548;-76.088;2023-04-03T11:16:21;2;2;
31330;PMS5003;34067;39.548;-76.088;2023-04-03T11:18:54;4;4;
31330;PMS5003;34067;39.548;-76.088;2023-04-03T11:21:27;3;3;
31330;PMS5003;34067;39.548;-76.088;2023-04-03T11:23:59;3;3;
31330;PMS5003;34067;39.548;-76.088;2023-04-03T11:26:32;4;3;
31330;PMS5003;34067;39.548;-76.088;2023-04-03T11:29:08;2;2;
31330;PMS5003;34067;39.548;-76.088;2023-04-03T11:31:43;5;4;
31330;PMS5003;34067;39.548;-76.088;2023-04-03T11:34:30;4;4;
31330;PMS5003;34067;39.548;-76.088;2023-04-03T11:37:04;4;3;
31330;PMS5003;34067;39.548;-76.088;2023-04-03T11:39:40;4;4;
31330;PMS5003;34067;39.548;-76.088;2023-04-03T11:42:24;3;3;
31330;PMS5003;34067;39.548;-76.088;2023-04-03T11:46:04;2;2;
31330;PMS5003;34067;39.548;-76.088;2023-04-03T11:48:50;3;3;
31330;PMS5003;34067;39.548;-76.088;2023-04-03T11:51:51;4;4;
31330;PMS5003;34067;39.548;-76.088;2023-04-03T11:54:44;4;3;
31330;PMS5003;34067;39.548;-76.088;2023-04-03T11:58:01;4;4;
31330;PMS5003;34067;39.548;-76.088;2023-04-03T12:01:05;5;4;
31330;PMS5003;34067;39.548;-76.088;2023-04-03T12:04:07;6;5;
31330;PMS5003;34067;39.548;-76.088;2023-04-03T12:06:50;6;6;
31330;PMS5003;34067;39.548;-76.088;2023-04-03T12:10:16;102;102;
31330;PMS5003;34067;39.548;-76.088;2023-04-03T12:13:00;21;21;
31330;PMS5003;34067;39.548;-76.088;2023-04-03T12:15:45;42;42;
31330;PMS5003;34067;39.548;-76.088;2023-04-03T12:21:01;22;22;
31330;PMS5003;34067;39.548;-76.088;2023-04-03T12:23:30;30;29;
31330;PMS5003;34067;39.548;-76.088;2023-04-03T12:26:03;21;21;
31330;PMS5003;34067;39.548;-76.088;2023-04-03T12:28:46;13;13;
31330;PMS5003;34067;39.548;-76.088;2023-04-03T12:31:14;5;5;
31330;PMS5003;34067;39.548;-76.088;2023-04-03T12:33:47;6;5;
31330;PMS5003;34067;39.548;-76.088;2023-04-03T12:36:29;2;2;
31330;PMS5003;34067;39.548;-76.088;2023-04-03T12:39:13;6;5;
31330;PMS5003;34067;39.548;-76.088;2023-04-03T12:41:54;4;4;
31330;PMS5003;34067;39.548;-76.088;2023-04-03T12:44:34;4;4;
31330;PMS5003;34067;39.548;-76.088;2023-04-03T12:47:13;7;6;
31330;PMS5003;34067;39.548;-76.088;2023-04-03T12:49:49;5;5;
31330;PMS5003;34067;39.548;-76.088;2023-04-03T12:52:19;5;4;
31330;PMS5003;34067;39.548;-76.088;2023-04-03T12:54:59;5;5;
31330;PMS5003;34067;39.548;-76.088;2023-04-03T12:57:27;5;5;
31330;PMS5003;34067;39.548;-76.088;2023-04-03T12:59:56;9;8;
31330;PMS5003;34067;39.548;-76.088;2023-04-03T13:02:25;7;6;
31330;PMS5003;34067;39.548;-76.088;2023-04-03T13:04:54;7;7;
31330;PMS5003;34067;39.548;-76.088;2023-04-03T13:07:25;8;7;
31330;PMS5003;34067;39.548;-76.088;2023-04-03T13:09:56;7;7;
31330;PMS5003;34067;39.548;-76.088;2023-04-03T13:12:27;8;7;
31330;PMS5003;34067;39.548;-76.088;2023-04-03T13:14:56;8;8;
31330;PMS5003;34067;39.548;-76.088;2023-04-03T13:17:25;5;5;
31330;PMS5003;34067;39.548;-76.088;2023-04-03T13:19:54;6;6;
31330;PMS5003;34067;39.548;-76.088;2023-04-03T13:22:25;17;14;
31330;PMS5003;34067;39.548;-76.088;2023-04-03T13:24:57;6;6;
31330;PMS5003;34067;39.548;-76.088;2023-04-03T13:27:29;7;6;
31330;PMS5003;34067;39.548;-76.088;2023-04-03T13:29:59;8;7;
31330;PMS5003;34067;39.548;-76.088;2023-04-03T13:32:30;10;8;
31330;PMS5003;34067;39.548;-76.088;2023-04-03T13:35:00;8;8;
31330;PMS5003;34067;39.548;-76.088;2023-04-03T13:37:30;7;7;
31330;PMS5003;34067;39.548;-76.088;2023-04-03T13:40:01;7;7;
31330;PMS5003;34067;39.548;-76.088;2023-04-03T13:42:37;6;6;
31330;PMS5003;34067;39.548;-76.088;2023-04-03T13:45:17;9;8;
31330;PMS5003;34067;39.548;-76.088;2023-04-03T13:47:48;10;9;
31330;PMS5003;34067;39.548;-76.088;2023-04-03T13:50:20;9;8;
31330;PMS5003;34067;39.548;-76.088;2023-04-03T13:52:51;99;78;
31330;PMS5003;34067;39.548;-76.088;2023-04-03T13:55:22;13;12;
31330;PMS5003;34067;39.548;-76.088;2023-04-03T13:57:57;10;10;
31330;PMS5003;34067;39.548;-76.088;2023-04-03T14:00:29;6;6;
31330;PMS5003;34067;39.548;-76.088;2023-04-03T14:03:00;8;8;
31330;PMS5003;34067;39.548;-76.088;2023-04-03T14:05:29;10;7;
31330;PMS5003;34067;39.548;-76.088;2023-04-03T14:07:57;8;8;
31330;PMS5003;34067;39.548;-76.088;2023-04-03T14:10:26;30;30;
31330;PMS5003;34067;39.548;-76.088;2023-04-03T14:12:53;8;8;
31330;PMS5003;34067;39.548;-76.088;2023-04-03T14:15:22;8;8;
31330;PMS5003;34067;39.548;-76.088;2023-04-03T14:17:52;7;7;
31330;PMS5003;34067;39.548;-76.088;2023-04-03T14:20:22;7;7;
31330;PMS5003;34067;39.548;-76.088;2023-04-03T14:22:53;5;5;
31330;PMS5003;34067;39.548;-76.088;2023-04-03T14:25:22;6;6;
31330;PMS5003;34067;39.548;-76.088;2023-04-03T14:27:50;8;7;
31330;PMS5003;34067;39.548;-76.088;2023-04-03T14:30:20;7;7;
31330;PMS5003;34067;39.548;-76.088;2023-04-03T14:32:50;6;6;
31330;PMS5003;34067;39.548;-76.088;2023-04-03T14:35:18;7;7;
31330;PMS5003;34067;39.548;-76.088;2023-04-03T14:37:46;6;6;
31330;PMS5003;34067;39.548;-76.088;2023-04-03T14:40:16;5;5;
31330;PMS5003;34067;39.548;-76.088;2023-04-03T14:42:46;6;6;
31330;PMS5003;34067;39.548;-76.088;2023-04-03T14:45:14;6;6;
31330;PMS5003;34067;39.548;-76.088;2023-04-03T14:47:44;6;6;
31330;PMS5003;34067;39.548;-76.088;2023-04-03T14:50:14;4;4;
31330;PMS5003;34067;39.548;-76.088;2023-04-03T14:52:44;6;5;
31330;PMS5003;34067;39.548;-76.088;2023-04-03T14:55:14;9;9;
31330;PMS5003;34067;39.548;-76.088;2023-04-03T14:57:43;6;5;
31330;PMS5003;34067;39.548;-76.088;2023-04-03T15:00:12;5;5;
31330;PMS5003;34067;39.548;-76.088;2023-04-03T15:02:42;4;4;
31330;PMS5003;34067;39.548;-76.088;2023-04-03T15:05:11;4;4;
31330;PMS5003;34067;39.548;-76.088;2023-04-03T15:07:39;5;5;
31330;PMS5003;34067;39.548;-76.088;2023-04-03T15:10:14;5;5;
31330;PMS5003;34067;39.548;-76.088;2023-04-03T15:12:44;4;4;
31330;PMS5003;34067;39.548;-76.088;2023-04-03T15:15:16;5;5;
31330;PMS5003;34067;39.548;-76.088;2023-04-03T15:17:46;5;5;
31330;PMS5003;34067;39.548;-76.088;2023-04-03T15:20:18;5;5;
31330;PMS5003;34067;39.548;-76.088;2023-04-03T15:22:47;4;4;
31330;PMS5003;34067;39.548;-76.088;2023-04-03T15:25:15;5;5;
31330;PMS5003;34067;39.548;-76.088;2023-04-03T15:27:44;5;4;
31330;PMS5003;34067;39.548;-76.088;2023-04-03T15:30:14;3;3;
31330;PMS5003;34067;39.548;-76.088;2023-04-03T15:32:43;4;4;
31330;PMS5003;34067;39.548;-76.088;2023-04-03T15:35:13;6;6;
31330;PMS5003;34067;39.548;-76.088;2023-04-03T15:37:40;5;5;
31330;PMS5003;34067;39.548;-76.088;2023-04-03T15:40:09;3;3;
31330;PMS5003;34067;39.548;-76.088;2023-04-03T15:42:37;19;18;
31330;PMS5003;34067;39.548;-76.088;2023-04-03T15:45:07;9;9;
31330;PMS5003;34067;39.548;-76.088;2023-04-03T15:47:35;9;8;
31330;PMS5003;34067;39.548;-76.088;2023-04-03T15:50:05;10;10;
31330;PMS5003;34067;39.548;-76.088;2023-04-03T15:52:34;7;7;
31330;PMS5003;34067;39.548;-76.088;2023-04-03T15:55:02;9;9;
31330;PMS5003;34067;39.548;-76.088;2023-04-03T15:57:31;5;5;
31330;PMS5003;34067;39.548;-76.088;2023-04-03T15:59:59;6;6;
31330;PMS5003;34067;39.548;-76.088;2023-04-03T16:02:27;4;3;
31330;PMS5003;34067;39.548;-76.088;2023-04-03T16:04:55;3;3;
31330;PMS5003;34067;39.548;-76.088;2023-04-03T16:07:23;4;4;
31330;PMS5003;34067;39.548;-76.088;2023-04-03T16:09:51;4;4;
31330;PMS5003;34067;39.548;-76.088;2023-04-03T16:12:20;4;4;
31330;PMS5003;34067;39.548;-76.088;2023-04-03T16:14:48;3;3;
31330;PMS5003;34067;39.548;-76.088;2023-04-03T16:17:17;4;4;
31330;PMS5003;34067;39.548;-76.088;2023-04-03T16:19:44;3;3;
31330;PMS5003;34067;39.548;-76.088;2023-04-03T16:22:13;4;4;
31330;PMS5003;34067;39.548;-76.088;2023-04-03T16:24:41;8;8;
31330;PMS5003;34067;39.548;-76.088;2023-04-03T16:27:09;10;10;
31330;PMS5003;34067;39.548;-76.088;2023-04-03T16:29:37;5;4;
31330;PMS5003;34067;39.548;-76.088;2023-04-03T16:32:05;4;3;
31330;PMS5003;34067;39.548;-76.088;2023-04-03T16:34:33;3;3;